This is the latest recevied weather packets stored in our database for station/object 9A7DI-13. If no packets are shown the sender has not sent any weather packets the latest 10 day(s).
| Time | Temp. | Humidity | Pressure | Rain* | Wind** | Luminosity | Snow |
|---|---|---|---|---|---|---|---|
| 1778090227 | 18.89° C | 72% | 1019.3 hPa | - | - | - | - |
| 1778089627 | 18.89° C | 71% | 1019.2 hPa | - | - | - | - |
| 1778089027 | 18.89° C | 71% | 1019.2 hPa | - | - | - | - |
| 1778088427 | 19.44° C | 70% | 1019.3 hPa | - | - | - | - |
| 1778087827 | 19.44° C | 70% | 1019 hPa | - | - | - | - |
| 1778087227 | 20° C | 70% | 1018.9 hPa | - | - | - | - |
| 1778086627 | 20° C | 67% | 1018.7 hPa | - | - | - | - |
| 1778086028 | 20° C | 67% | 1018.7 hPa | - | - | - | - |
| 1778085427 | 20° C | 66% | 1018.7 hPa | - | - | - | - |
| 1778084827 | 20° C | 65% | 1018.6 hPa | - | - | - | - |
| 1778084227 | 20.56° C | 66% | 1018.7 hPa | - | - | - | - |
| 1778083627 | 20.56° C | 68% | 1018.8 hPa | - | - | - | - |
| 1778083027 | 19.44° C | 68% | 1019 hPa | - | - | - | - |
| 1778082427 | 20.56° C | 62% | 1019 hPa | - | - | - | - |
| 1778081827 | 21.11° C | 58% | 1019 hPa | - | - | - | - |
| 1778081228 | 21.67° C | 60% | 1019.1 hPa | - | - | - | - |
| 1778080628 | 22.78° C | 55% | 1018.7 hPa | - | - | - | - |
| 1778080027 | 23.33° C | 53% | 1018.5 hPa | - | - | - | - |
| 1778079428 | 24.44° C | 42% | 1018.2 hPa | - | - | - | - |
| 1778078828 | 25° C | 41% | 1018.1 hPa | - | - | - | - |
| 1778078228 | 26.11° C | 38% | 1018.1 hPa | - | - | - | - |
| 1778077628 | 26.67° C | 35% | 1018.1 hPa | - | - | - | - |
| 1778077028 | 26.67° C | 35% | 1018.1 hPa | - | - | - | - |
| 1778076428 | 26.11° C | 36% | 1018.2 hPa | - | - | - | - |
| 1778075828 | 26.11° C | 37% | 1018.2 hPa | - | - | - | - |
* Rain since midnight (hover to see other rain measurements)
** Current wind speed in m/s (hover to see current wind gust speed)